Weather at World Trade Center Heliport

Public forecast

Using degrees Fahrenheit for public forecast. Weather courtesy of forecast.io.

Closest aviation weather report (METAR) to World Trade Center Heliport

Closest report is Long Beach Airport (Daugherty Field), 3.4 nm (6.3 km) NE. Retrieved 2020/10/21 11:53 UTC (23 minutes ago):

KLGB 211153Z AUTO 06004KT 4SM HZ OVC012 18/16 A2981 RMK AO2 SLP095 T01830156 10189 20183 56007

Closest aviation forecast (TAF) to World Trade Center Heliport

Closest forecast is Long Beach Airport (Daugherty Field), 3.4 nm (6.3 km) NE. Retrieved 2020/10/21 12:36 UTC (0 seconds ago):

TAF KLGB 211135Z 2112/2212 VRB03KT 5SM BR OVC012 FM211400 VRB03KT P6SM OVC016 FM211900 19008KT P6SM SCT016 FM212300 25006KT P6SM SKC FM220400 VRB03KT P6SM BKN009 FM220800 VRB03KT P6SM OVC016